createdAt,value
2022-09-10T00:01:34.464Z,14.05
2022-09-10T00:04:04.574Z,13.55
2022-09-10T00:06:35.577Z,15.40
2022-09-10T00:09:03.757Z,13.40
2022-09-10T00:11:32.332Z,14.65
2022-09-10T00:14:01.350Z,12.73
2022-09-10T00:16:31.049Z,13.30
2022-09-10T00:19:02.269Z,16.15
2022-09-10T00:21:31.123Z,18.23
2022-09-10T00:23:59.816Z,15.07
2022-09-10T00:26:30.145Z,14.15
2022-09-10T00:29:00.140Z,13.48
2022-09-10T00:31:29.989Z,15.68
2022-09-10T00:34:01.229Z,14.38
2022-09-10T00:36:32.902Z,16.50
2022-09-10T00:39:03.623Z,14.15
2022-09-10T00:41:32.355Z,19.05
2022-09-10T00:44:02.414Z,15.82
2022-09-10T00:46:37.265Z,13.98
2022-09-10T00:49:14.923Z,13.63
2022-09-10T00:51:43.450Z,15.77
2022-09-10T00:54:11.961Z,12.05
2022-09-10T00:56:40.375Z,13.13
2022-09-10T00:59:11.069Z,14.73
2022-09-10T01:01:41.354Z,13.80
2022-09-10T01:04:11.010Z,17.35
2022-09-10T01:06:40.413Z,18.30
2022-09-10T01:09:09.969Z,18.27
2022-09-10T01:11:57.774Z,18.70
2022-09-10T01:14:40.899Z,16.25
2022-09-10T01:17:18.499Z,19.20
2022-09-10T01:20:18.694Z,19.83
2022-09-10T01:23:06.290Z,15.82
2022-09-10T01:25:44.498Z,20.70
2022-09-10T01:28:19.342Z,18.95
2022-09-10T01:30:54.706Z,17.58
2022-09-10T01:33:27.862Z,19.83
2022-09-10T01:36:01.987Z,17.23
2022-09-10T01:38:34.610Z,20.95
2022-09-10T01:41:03.061Z,20.00
2022-09-10T01:43:33.337Z,20.27
2022-09-10T01:46:15.292Z,20.75
2022-09-10T01:49:09.952Z,19.13
2022-09-10T01:51:54.263Z,24.15
2022-09-10T01:54:37.451Z,18.10
2022-09-10T01:57:21.541Z,18.10
2022-09-10T02:00:00.011Z,17.00
2022-09-10T02:02:32.644Z,18.42
2022-09-10T02:05:03.020Z,19.67
2022-09-10T02:07:33.299Z,19.73
2022-09-10T02:10:02.695Z,14.85
2022-09-10T02:12:31.085Z,22.10
2022-09-10T02:15:00.565Z,17.27
2022-09-10T02:17:32.348Z,22.52
2022-09-10T02:20:03.377Z,17.50
2022-09-10T02:22:33.618Z,18.65
2022-09-10T02:25:01.632Z,17.77
2022-09-10T02:27:30.608Z,15.00
2022-09-10T02:30:00.063Z,21.08
2022-09-10T02:32:28.356Z,20.05
2022-09-10T02:34:56.362Z,21.08
2022-09-10T02:37:24.419Z,14.73
2022-09-10T02:39:52.591Z,15.10
2022-09-10T02:42:20.671Z,19.73
2022-09-10T02:44:49.925Z,17.38
2022-09-10T02:47:19.503Z,15.52
2022-09-10T02:49:47.522Z,17.10
2022-09-10T02:52:15.671Z,15.85
2022-09-10T02:54:43.944Z,18.42
2022-09-10T02:57:12.312Z,19.40
2022-09-10T02:59:40.385Z,17.30
2022-09-10T03:02:08.368Z,17.42
2022-09-10T03:04:38.253Z,18.77
2022-09-10T03:07:06.266Z,15.98
2022-09-10T03:09:35.752Z,15.13
2022-09-10T03:12:03.988Z,15.32
2022-09-10T03:14:32.057Z,15.80
2022-09-10T03:17:00.329Z,15.57
2022-09-10T03:19:28.440Z,14.13
2022-09-10T03:21:58.220Z,17.30
2022-09-10T03:24:26.547Z,15.38
2022-09-10T03:26:54.497Z,17.85
2022-09-10T03:29:23.217Z,19.63
2022-09-10T03:31:51.800Z,16.58
2022-09-10T03:34:20.508Z,14.18
2022-09-10T03:36:48.585Z,16.27
2022-09-10T03:39:19.098Z,15.82
2022-09-10T03:41:48.261Z,15.88
2022-09-10T03:44:17.336Z,16.45
2022-09-10T03:46:45.747Z,15.38
2022-09-10T03:49:13.758Z,16.85
2022-09-10T03:51:41.861Z,14.43
2022-09-10T03:54:10.234Z,16.02
2022-09-10T03:56:39.834Z,14.68
2022-09-10T03:59:07.964Z,19.50
2022-09-10T04:01:37.098Z,25.50
2022-09-10T04:04:05.071Z,17.30
2022-09-10T04:06:33.504Z,17.15
2022-09-10T04:09:01.903Z,17.33
2022-09-10T04:11:30.228Z,15.77
2022-09-10T04:14:00.228Z,19.95
2022-09-10T04:16:28.286Z,17.38
2022-09-10T04:18:56.282Z,15.35
2022-09-10T04:21:24.716Z,20.92
2022-09-10T04:23:55.936Z,21.00
2022-09-10T04:26:24.125Z,15.20
2022-09-10T04:28:52.658Z,18.48
2022-09-10T04:31:22.118Z,18.80
2022-09-10T04:33:50.787Z,17.95
2022-09-10T04:36:19.286Z,23.13
2022-09-10T04:38:47.646Z,19.70
2022-09-10T04:41:18.393Z,17.00
2022-09-10T04:43:47.375Z,18.10
2022-09-10T04:46:16.090Z,20.77
2022-09-10T04:48:45.556Z,20.13
2022-09-10T04:51:16.654Z,18.17
2022-09-10T04:53:46.364Z,20.73
2022-09-10T04:56:15.031Z,20.98
2022-09-10T04:58:44.313Z,21.35
2022-09-10T05:01:12.816Z,24.02
2022-09-10T05:03:41.256Z,20.65
2022-09-10T05:06:10.921Z,26.38
2022-09-10T05:08:39.119Z,21.27
2022-09-10T05:11:07.707Z,21.77
2022-09-10T05:13:35.956Z,20.20
2022-09-10T05:16:04.102Z,18.08
2022-09-10T05:18:32.173Z,18.58
2022-09-10T05:21:00.219Z,18.45
2022-09-10T05:23:29.702Z,19.83
2022-09-10T05:25:57.962Z,17.80
2022-09-10T05:28:26.256Z,16.98
2022-09-10T05:30:54.822Z,17.38
2022-09-10T05:33:23.195Z,15.30
2022-09-10T05:35:52.092Z,14.43
2022-09-10T05:38:20.618Z,17.30
2022-09-10T05:40:50.446Z,16.27
2022-09-10T05:43:18.421Z,14.55
2022-09-10T05:45:47.271Z,15.05
2022-09-10T05:48:15.409Z,14.65
2022-09-10T05:50:45.584Z,21.85
2022-09-10T05:53:13.834Z,19.45
2022-09-10T05:55:41.876Z,18.48
2022-09-10T05:58:11.376Z,19.70
2022-09-10T06:00:39.347Z,18.05
2022-09-10T06:03:07.921Z,16.27
2022-09-10T06:05:36.036Z,17.70
2022-09-10T06:08:08.565Z,20.75
2022-09-10T06:10:37.600Z,15.27
2022-09-10T06:13:06.868Z,14.90
2022-09-10T06:15:38.040Z,14.57
2022-09-10T06:18:06.208Z,22.88
2022-09-10T06:20:34.344Z,16.05
2022-09-10T06:23:02.533Z,19.88
2022-09-10T06:25:31.174Z,16.20
2022-09-10T06:27:59.673Z,15.32
2022-09-10T06:30:28.573Z,15.40
2022-09-10T06:32:58.535Z,12.25
2022-09-10T06:35:27.225Z,14.70
2022-09-10T06:37:56.115Z,12.63
2022-09-10T06:40:27.729Z,15.27
2022-09-10T06:42:56.274Z,16.25
2022-09-10T06:45:24.225Z,15.75
2022-09-10T06:48:37.082Z,13.82
2022-09-10T06:50:51.737Z,15.25
2022-09-10T06:53:22.179Z,18.67
2022-09-10T06:55:50.989Z,11.27
2022-09-10T06:58:19.923Z,16.27
2022-09-10T07:00:48.570Z,16.88
2022-09-10T07:03:17.038Z,16.10
2022-09-10T07:05:47.718Z,14.35
2022-09-10T07:08:17.497Z,14.40
2022-09-10T07:10:46.694Z,17.92
2022-09-10T07:13:15.254Z,12.15
2022-09-10T07:15:47.614Z,15.98
2022-09-10T07:18:15.727Z,18.17
2022-09-10T07:20:44.581Z,14.07
2022-09-10T07:23:14.752Z,15.40
2022-09-10T07:25:43.246Z,13.73
2022-09-10T07:28:14.879Z,17.42
2022-09-10T07:30:43.733Z,15.80
2022-09-10T07:33:12.366Z,12.73
2022-09-10T07:35:40.940Z,15.18
2022-09-10T07:38:15.651Z,10.75
2022-09-10T07:40:44.175Z,12.50
2022-09-10T07:43:12.203Z,16.73
2022-09-10T07:45:42.011Z,16.85
2022-09-10T07:48:11.966Z,15.95
2022-09-10T07:50:40.025Z,10.70
2022-09-10T07:53:08.023Z,14.55
2022-09-10T07:55:37.435Z,13.23
2022-09-10T07:58:05.435Z,13.40
2022-09-10T08:00:33.857Z,13.25
2022-09-10T08:03:03.166Z,10.50
2022-09-10T08:05:31.436Z,17.35
2022-09-10T08:07:59.607Z,13.93
2022-09-10T08:10:27.578Z,12.55
2022-09-10T08:12:57.462Z,13.82
2022-09-10T08:15:25.465Z,13.00
2022-09-10T08:17:53.657Z,12.13
2022-09-10T08:20:22.534Z,13.65
2022-09-10T08:22:50.715Z,14.32
2022-09-10T08:25:20.146Z,16.02
2022-09-10T08:27:49.199Z,12.13
2022-09-10T08:30:18.798Z,15.05
2022-09-10T08:32:47.239Z,15.23
2022-09-10T08:35:15.353Z,12.55
2022-09-10T08:37:43.791Z,15.57
2022-09-10T08:40:13.379Z,12.48
2022-09-10T08:42:46.078Z,19.23
2022-09-10T08:45:21.025Z,15.25
2022-09-10T08:48:02.582Z,14.93
2022-09-10T08:50:38.028Z,13.48
2022-09-10T08:53:20.263Z,13.40
2022-09-10T08:55:49.521Z,11.02
2022-09-10T08:58:23.659Z,10.75
2022-09-10T09:00:58.769Z,16.25
2022-09-10T09:03:30.468Z,11.10
2022-09-10T09:06:00.852Z,17.05
2022-09-10T09:08:31.577Z,23.02
2022-09-10T09:11:11.073Z,17.08
2022-09-10T09:13:55.597Z,11.07
2022-09-10T09:16:45.398Z,15.77
2022-09-10T09:19:18.702Z,14.10
2022-09-10T09:21:53.569Z,17.35
2022-09-10T09:24:25.187Z,12.23
2022-09-10T09:26:56.816Z,14.52
2022-09-10T09:29:28.668Z,12.60
2022-09-10T09:32:00.985Z,12.88
2022-09-10T09:34:35.097Z,14.00
2022-09-10T09:37:05.682Z,14.15
2022-09-10T09:39:40.103Z,13.45
2022-09-10T09:42:18.259Z,12.45
2022-09-10T09:44:55.031Z,14.65
2022-09-10T09:47:26.293Z,14.57
2022-09-10T09:49:54.426Z,9.75
2022-09-10T09:52:24.900Z,11.98
2022-09-10T09:55:15.465Z,12.57
2022-09-10T09:57:43.939Z,16.75
2022-09-10T10:00:36.605Z,13.48
2022-09-10T10:03:16.529Z,15.93
2022-09-10T10:05:45.029Z,15.52
2022-09-10T10:08:30.263Z,15.95
2022-09-10T10:10:58.770Z,10.82
2022-09-10T10:13:36.112Z,17.05
2022-09-10T10:16:16.882Z,13.82
2022-09-10T10:18:47.020Z,12.98
2022-09-10T10:21:18.703Z,12.48
2022-09-10T10:23:47.790Z,13.88
2022-09-10T10:26:34.988Z,17.05
2022-09-10T10:29:06.745Z,15.30
2022-09-10T10:31:41.433Z,14.52
2022-09-10T10:34:37.424Z,12.43
2022-09-10T10:37:11.012Z,15.02
2022-09-10T10:40:06.250Z,15.57
2022-09-10T10:42:39.619Z,12.80
2022-09-10T10:45:19.296Z,14.05
2022-09-10T10:47:55.219Z,11.23
2022-09-10T10:50:37.176Z,16.50
2022-09-10T10:53:26.883Z,11.30
2022-09-10T10:56:07.471Z,14.20
2022-09-10T10:58:54.083Z,18.83
2022-09-10T11:01:24.778Z,13.05
2022-09-10T11:04:01.176Z,12.75
2022-09-10T11:06:38.410Z,13.63
2022-09-10T11:09:09.436Z,13.45
2022-09-10T11:11:49.239Z,19.77
2022-09-10T11:14:23.266Z,15.05
2022-09-10T11:16:58.800Z,15.23
2022-09-10T11:19:35.851Z,16.15
2022-09-10T11:22:13.582Z,11.48
2022-09-10T11:24:50.454Z,11.80
2022-09-10T11:27:21.913Z,12.10
2022-09-10T11:29:56.293Z,11.63
2022-09-10T11:32:32.599Z,14.27
2022-09-10T11:35:08.626Z,14.30
2022-09-10T11:37:52.906Z,13.00
2022-09-10T11:40:30.157Z,10.15
2022-09-10T11:43:02.249Z,12.60
2022-09-10T11:45:41.585Z,14.75
2022-09-10T11:48:19.865Z,8.98
2022-09-10T11:50:54.793Z,9.18
2022-09-10T11:53:26.645Z,9.02
2022-09-10T11:56:28.706Z,8.35
2022-09-10T11:59:09.837Z,11.15
2022-09-10T12:02:04.924Z,18.55
2022-09-10T12:04:47.650Z,9.68
2022-09-10T12:07:27.896Z,10.68
2022-09-10T12:10:09.954Z,13.65
2022-09-10T12:12:44.460Z,8.85
2022-09-10T12:15:19.916Z,11.90
2022-09-10T12:17:55.116Z,13.77
2022-09-10T12:20:30.271Z,16.67
2022-09-10T12:22:59.779Z,14.90
2022-09-10T12:25:34.643Z,13.55
2022-09-10T12:28:07.885Z,10.52
2022-09-10T12:31:03.378Z,13.38
2022-09-10T12:34:12.483Z,16.75
2022-09-10T12:37:19.864Z,10.30
2022-09-10T12:39:48.638Z,12.38
2022-09-10T12:42:36.781Z,15.70
2022-09-10T12:45:05.354Z,9.40
2022-09-10T12:47:50.396Z,16.55
2022-09-10T12:50:47.440Z,14.45
2022-09-10T12:53:48.592Z,15.60
2022-09-10T12:56:41.654Z,15.40
2022-09-10T12:59:57.603Z,22.98
2022-09-10T13:02:33.067Z,13.77
2022-09-10T13:05:05.662Z,21.00
2022-09-10T13:07:41.843Z,13.07
2022-09-10T13:10:22.053Z,10.88
2022-09-10T13:12:55.784Z,14.15
2022-09-10T13:15:29.972Z,11.43
2022-09-10T13:18:24.877Z,11.73
2022-09-10T13:20:53.202Z,15.30
2022-09-10T13:23:25.245Z,14.43
2022-09-10T13:25:53.708Z,15.85
2022-09-10T13:29:01.071Z,19.13
2022-09-10T13:31:33.504Z,10.65
2022-09-10T13:34:41.264Z,16.63
2022-09-10T13:37:34.893Z,14.68
2022-09-10T13:40:40.718Z,13.07
2022-09-10T13:43:25.645Z,15.88
2022-09-10T13:45:59.518Z,13.25
2022-09-10T13:48:35.611Z,12.93
2022-09-10T13:51:19.038Z,9.63
2022-09-10T13:53:49.585Z,12.38
2022-09-10T13:56:22.559Z,14.07
2022-09-10T13:58:53.651Z,17.17
2022-09-10T14:01:21.695Z,17.73
2022-09-10T14:03:52.599Z,10.88
2022-09-10T14:06:23.182Z,12.15
2022-09-10T14:08:54.922Z,14.13
2022-09-10T14:11:26.012Z,11.80
2022-09-10T14:13:58.608Z,11.20
2022-09-10T14:16:31.897Z,15.73
2022-09-10T14:19:05.334Z,14.82
2022-09-10T14:21:33.723Z,12.43
2022-09-10T14:24:01.709Z,12.00
2022-09-10T14:26:33.814Z,16.25
2022-09-10T14:29:04.035Z,12.30
2022-09-10T14:31:36.290Z,14.05
2022-09-10T14:34:32.171Z,11.23
2022-09-10T14:37:01.946Z,12.02
2022-09-10T14:39:30.359Z,12.15
2022-09-10T14:42:24.129Z,18.58
2022-09-10T14:44:52.745Z,16.15
2022-09-10T14:47:32.496Z,13.65
2022-09-10T14:50:31.158Z,10.38
2022-09-10T14:52:59.497Z,18.83
2022-09-10T14:55:29.554Z,17.13
2022-09-10T14:57:58.303Z,13.48
2022-09-10T15:00:27.101Z,15.60
2022-09-10T15:02:57.499Z,14.75
2022-09-10T15:05:27.269Z,14.73
2022-09-10T15:07:55.284Z,11.07
2022-09-10T15:10:23.355Z,16.00
2022-09-10T15:12:53.003Z,14.30
2022-09-10T15:15:21.318Z,11.90
2022-09-10T15:17:49.290Z,13.07
2022-09-10T15:20:17.719Z,12.73
2022-09-10T15:22:47.143Z,16.05
2022-09-10T15:25:33.919Z,13.95
2022-09-10T15:28:04.293Z,15.32
2022-09-10T15:30:32.451Z,16.25
2022-09-10T15:33:00.681Z,16.73
2022-09-10T15:35:28.814Z,18.50
2022-09-10T15:37:58.327Z,16.88
2022-09-10T15:40:26.308Z,16.45
2022-09-10T15:42:54.721Z,17.75
2022-09-10T15:45:22.756Z,16.75
2022-09-10T15:47:51.224Z,16.13
2022-09-10T15:50:19.217Z,14.50
2022-09-10T15:52:47.553Z,12.75
2022-09-10T15:55:19.314Z,16.95
2022-09-10T15:57:49.798Z,13.70
2022-09-10T16:00:19.035Z,12.07
2022-09-10T16:02:52.031Z,17.13
2022-09-10T16:05:21.173Z,19.30
2022-09-10T16:07:49.636Z,13.75
2022-09-10T16:10:19.283Z,17.48
2022-09-10T16:12:47.328Z,23.60
2022-09-10T16:15:15.536Z,22.30
2022-09-10T16:17:43.718Z,21.17
2022-09-10T16:20:11.983Z,19.42
2022-09-10T16:22:39.954Z,14.25
2022-09-10T16:25:08.919Z,13.05
2022-09-10T16:27:42.587Z,16.48
2022-09-10T16:30:12.875Z,14.82
2022-09-10T16:32:40.849Z,13.70
2022-09-10T16:35:09.816Z,17.45
2022-09-10T16:37:37.813Z,15.05
2022-09-10T16:40:07.239Z,12.50
2022-09-10T16:42:35.349Z,18.63
2022-09-10T16:45:05.368Z,14.77
2022-09-10T16:47:33.735Z,11.93
2022-09-10T16:50:01.743Z,15.65
2022-09-10T16:52:31.159Z,19.02
2022-09-10T16:54:59.234Z,16.35
2022-09-10T16:57:27.176Z,13.98
2022-09-10T16:59:55.200Z,16.85
2022-09-10T17:02:24.610Z,16.42
2022-09-10T17:04:52.584Z,17.83
2022-09-10T17:07:20.567Z,16.90
2022-09-10T17:09:48.568Z,21.17
2022-09-10T17:12:16.830Z,17.60
2022-09-10T17:14:44.837Z,17.65
2022-09-10T17:17:13.948Z,14.80
2022-09-10T17:19:44.118Z,21.05
2022-09-10T17:22:12.167Z,18.48
2022-09-10T17:24:40.191Z,14.98
2022-09-10T17:27:08.345Z,18.23
2022-09-10T17:29:36.422Z,16.02
2022-09-10T17:32:05.470Z,27.30
2022-09-10T17:34:33.969Z,17.15
2022-09-10T17:37:03.821Z,14.93
2022-09-10T17:39:31.934Z,13.25
2022-09-10T17:42:00.260Z,18.88
2022-09-10T17:44:28.562Z,13.82
2022-09-10T17:46:56.529Z,18.60
2022-09-10T17:49:24.818Z,18.27
2022-09-10T17:51:53.341Z,21.00
2022-09-10T17:54:23.494Z,18.30
2022-09-10T17:56:51.515Z,19.50
2022-09-10T17:59:19.758Z,15.57
2022-09-10T18:01:47.905Z,16.42
2022-09-10T18:04:16.032Z,22.30
2022-09-10T18:06:46.819Z,16.63
2022-09-10T18:09:17.569Z,18.00
2022-09-10T18:11:47.466Z,24.02
2022-09-10T18:14:18.583Z,15.93
2022-09-10T18:16:47.329Z,19.85
2022-09-10T18:19:18.043Z,16.48
2022-09-10T18:24:32.982Z,17.80
2022-09-10T18:27:04.695Z,18.88
2022-09-10T18:29:33.119Z,19.17
2022-09-10T18:32:01.825Z,18.33
2022-09-10T18:34:32.119Z,17.50
2022-09-10T18:37:01.999Z,19.15
2022-09-10T18:39:32.092Z,15.50
2022-09-10T18:42:01.028Z,17.50
2022-09-10T18:44:33.333Z,13.60
2022-09-10T18:47:01.535Z,13.35
2022-09-10T18:49:29.710Z,17.25
2022-09-10T18:51:58.306Z,13.93
2022-09-10T18:54:29.026Z,17.65
2022-09-10T18:56:58.239Z,15.65
2022-09-10T18:59:27.127Z,16.95
2022-09-10T19:01:57.211Z,19.58
2022-09-10T19:04:27.456Z,15.98
2022-09-10T19:06:56.865Z,18.63
2022-09-10T19:09:26.881Z,16.15
2022-09-10T19:11:56.285Z,17.73
2022-09-10T19:14:26.373Z,14.63
2022-09-10T19:16:57.554Z,14.75
2022-09-10T19:19:26.990Z,14.63
2022-09-10T19:21:57.063Z,18.75
2022-09-10T19:24:44.055Z,17.77
2022-09-10T19:27:13.895Z,14.18
2022-09-10T19:29:43.215Z,14.02
2022-09-10T19:32:13.009Z,16.17
2022-09-10T19:34:41.244Z,14.43
2022-09-10T19:37:09.930Z,14.38
2022-09-10T19:39:38.064Z,13.90
2022-09-10T19:42:06.897Z,18.75
2022-09-10T19:44:35.473Z,14.68
2022-09-10T19:47:04.504Z,18.05
2022-09-10T19:49:34.246Z,18.10
2022-09-10T19:52:04.392Z,18.33
2022-09-10T19:54:32.518Z,18.60
2022-09-10T19:57:00.493Z,21.00
2022-09-10T19:59:29.660Z,18.27
2022-09-10T20:01:57.795Z,17.75
2022-09-10T20:04:26.031Z,17.35
2022-09-10T20:06:55.935Z,15.98
2022-09-10T20:09:24.241Z,14.88
2022-09-10T20:11:52.272Z,19.23
2022-09-10T20:14:21.066Z,17.75
2022-09-10T20:16:49.336Z,14.98
2022-09-10T20:19:20.357Z,15.07
2022-09-10T20:21:48.855Z,18.52
2022-09-10T20:24:18.418Z,15.30
2022-09-10T20:26:47.136Z,13.45
2022-09-10T20:29:18.032Z,14.65
2022-09-10T20:31:47.113Z,15.60
2022-09-10T20:34:17.445Z,15.07
2022-09-10T20:36:45.595Z,12.32
2022-09-10T20:39:15.874Z,18.02
2022-09-10T20:41:46.198Z,11.70
2022-09-10T20:44:16.095Z,11.50
2022-09-10T20:46:44.622Z,12.13
2022-09-10T20:49:13.686Z,12.48
2022-09-10T20:51:42.047Z,15.20
2022-09-10T20:54:13.211Z,11.10
2022-09-10T20:56:41.633Z,12.07
2022-09-10T20:59:14.698Z,11.95
2022-09-10T21:01:46.152Z,12.32
2022-09-10T21:04:14.867Z,10.13
2022-09-10T21:06:43.305Z,11.75
2022-09-10T21:09:11.509Z,12.55
2022-09-10T21:11:39.760Z,9.60
2022-09-10T21:14:08.876Z,11.65
2022-09-10T21:16:40.109Z,9.52
2022-09-10T21:19:10.908Z,11.43
2022-09-10T21:21:40.599Z,9.98
2022-09-10T21:24:11.054Z,10.63
2022-09-10T21:26:41.892Z,10.93
2022-09-10T21:29:12.546Z,11.35
2022-09-10T21:31:42.859Z,10.50
2022-09-10T21:34:10.905Z,9.57
2022-09-10T21:36:41.268Z,15.05
2022-09-10T21:39:13.969Z,11.00
2022-09-10T21:41:44.257Z,10.15
2022-09-10T21:44:15.234Z,11.20
2022-09-10T21:46:45.903Z,8.13
2022-09-10T21:49:14.259Z,10.20
2022-09-10T21:51:42.743Z,10.70
2022-09-10T21:54:15.592Z,8.75
2022-09-10T21:56:43.563Z,9.65
2022-09-10T21:59:13.015Z,9.18
2022-09-10T22:01:43.334Z,10.00
2022-09-10T22:04:13.660Z,10.45
2022-09-10T22:06:41.705Z,9.07
2022-09-10T22:09:11.966Z,9.55
2022-09-10T22:11:42.006Z,7.00
2022-09-10T22:14:14.084Z,9.40
2022-09-10T22:16:42.266Z,11.55
2022-09-10T22:19:14.214Z,7.18
2022-09-10T22:21:42.218Z,7.57
2022-09-10T22:24:12.618Z,9.30
2022-09-10T22:26:43.499Z,10.65
2022-09-10T22:29:12.656Z,10.63
2022-09-10T22:31:40.852Z,8.07
2022-09-10T22:34:11.584Z,8.15
2022-09-10T22:36:43.944Z,10.77
2022-09-10T22:39:13.998Z,7.82
2022-09-10T22:41:43.525Z,7.45
2022-09-10T22:44:12.330Z,7.97
2022-09-10T22:46:41.648Z,9.77
2022-09-10T22:49:10.290Z,9.80
2022-09-10T22:51:42.059Z,6.82
2022-09-10T22:54:11.375Z,9.35
2022-09-10T22:56:40.549Z,8.45
2022-09-10T22:59:12.386Z,13.40
2022-09-10T23:01:41.048Z,8.80
2022-09-10T23:04:10.419Z,8.60
2022-09-10T23:06:40.706Z,10.80
2022-09-10T23:09:11.690Z,8.50
2022-09-10T23:11:40.485Z,8.02
2022-09-10T23:14:13.077Z,11.18
2022-09-10T23:16:42.634Z,9.43
2022-09-10T23:19:13.290Z,10.80
2022-09-10T23:21:44.367Z,8.15
2022-09-10T23:24:16.771Z,10.80
2022-09-10T23:26:45.337Z,8.80
2022-09-10T23:29:16.950Z,11.07
2022-09-10T23:31:47.587Z,7.03
2022-09-10T23:34:17.206Z,9.32
2022-09-10T23:36:48.531Z,12.23
2022-09-10T23:39:19.815Z,7.65
2022-09-10T23:41:48.016Z,8.23
2022-09-10T23:44:16.125Z,7.50
2022-09-10T23:46:44.745Z,7.95
2022-09-10T23:49:13.425Z,7.78
2022-09-10T23:51:41.835Z,7.78
2022-09-10T23:54:12.501Z,8.13
2022-09-10T23:56:40.789Z,8.30
2022-09-10T23:59:09.671Z,8.35
